Time;durP1;ratioP1;P1;durP2;ratioP2;P2;SDS_P1;SDS_P2;PMS_P1;PMS_P2;Temp;Humidity;BMP_temperature;BMP_pressure;BME280_temperature;BME280_humidity;BME280_pressure;Samples;Min_cycle;Max_cycle;Signal;HPM_P1;HPM_P2
2023/06/30 00:01:48;;;;;;;0.55;0.55;;;;;;;16.18;77.04;99376.06;5054556;28;20491;-60
2023/06/30 00:04:22;;;;;;;0.70;0.70;;;;;;;16.20;76.65;99379.44;5054272;28;20487;-60
2023/06/30 00:06:51;;;;;;;0.50;0.50;;;;;;;16.14;76.38;99377.03;5054470;28;20132;-61
2023/06/30 00:09:21;;;;;;;1.77;1.40;;;;;;;16.08;76.57;99372.91;5054027;28;20564;-61
2023/06/30 00:11:50;;;;;;;;;;;;;;;16.12;76.67;99373.69;5054433;28;20136;-61
2023/06/30 00:14:19;;;;;;;0.50;0.50;;;;;;;16.19;76.30;99372.63;5054359;28;20260;-61
2023/06/30 00:16:49;;;;;;;0.50;0.50;;;;;;;16.27;75.89;99374.06;5054075;28;20060;-61
2023/06/30 00:19:20;;;;;;;0.70;0.68;;;;;;;16.31;76.28;99375.69;5053939;28;20127;-61
2023/06/30 00:21:52;;;;;;;1.85;1.40;;;;;;;16.31;75.68;99373.13;5053913;28;20099;-61
2023/06/30 00:24:21;;;;;;;0.65;0.65;;;;;;;16.29;75.94;99366.31;5054235;28;20068;-61
2023/06/30 00:26:50;;;;;;;0.70;0.70;;;;;;;16.29;75.72;99371.47;5053623;28;20049;-61
2023/06/30 00:29:19;;;;;;;0.50;0.50;;;;;;;16.30;76.10;99368.00;5053851;28;20045;-62
2023/06/30 00:31:48;;;;;;;0.50;0.50;;;;;;;16.35;76.30;99371.28;5053972;28;20045;-61
2023/06/30 00:34:17;;;;;;;0.90;0.90;;;;;;;16.34;76.02;99364.47;5053990;28;20044;-61
2023/06/30 00:36:49;;;;;;;0.52;0.52;;;;;;;16.33;75.77;99362.75;5054042;28;20458;-61
2023/06/30 00:39:17;;;;;;;0.63;0.63;;;;;;;16.22;75.76;99367.38;5052585;28;20071;-61
2023/06/30 00:41:46;;;;;;;0.33;0.33;;;;;;;16.21;75.96;99363.97;5054468;28;20387;-61
2023/06/30 00:44:15;;;;;;;0.70;0.70;;;;;;;16.22;75.49;99364.81;5053527;28;20487;-61
2023/06/30 00:46:44;;;;;;;0.40;0.40;;;;;;;16.23;75.23;99364.75;5053567;28;20640;-62
2023/06/30 00:49:13;;;;;;;0.40;0.40;;;;;;;16.17;75.56;99367.53;5052414;28;20037;-61
2023/06/30 00:51:43;;;;;;;0.93;0.60;;;;;;;16.10;75.72;99365.97;5053386;28;20120;-62
2023/06/30 00:54:15;;;;;;;0.90;0.85;;;;;;;16.09;75.70;99360.00;5053436;28;20052;-61
2023/06/30 00:56:44;;;;;;;0.50;0.50;;;;;;;16.10;75.38;99360.81;5054094;28;20064;-61
2023/06/30 00:59:14;;;;;;;1.08;0.98;;;;;;;16.13;75.67;99359.91;5053753;28;20055;-61
2023/06/30 01:01:50;;;;;;;2.78;1.42;;;;;;;16.14;75.23;99353.88;5053745;28;20049;-61
2023/06/30 01:04:26;;;;;;;0.50;0.50;;;;;;;16.05;75.38;99355.81;5053436;28;20044;-61
2023/06/30 01:07:00;;;;;;;1.75;0.88;;;;;;;16.00;75.33;99355.09;5053379;28;20064;-61
2023/06/30 01:09:37;;;;;;;0.85;0.70;;;;;;;16.01;75.57;99359.38;5057809;28;20446;-61
2023/06/30 01:12:09;;;;;;;0.57;0.57;;;;;;;15.99;75.54;99353.41;5057729;28;20394;-61
2023/06/30 01:14:39;;;;;;;1.63;0.60;;;;;;;15.97;75.91;99350.06;5057653;28;20040;-62
2023/06/30 01:17:11;;;;;;;0.50;0.40;;;;;;;15.93;75.54;99353.56;5057677;28;20402;-61
2023/06/30 01:19:45;;;;;;;1.27;0.93;;;;;;;15.89;75.72;99341.69;5057658;28;20064;-61
2023/06/30 01:22:24;;;;;;;0.50;0.50;;;;;;;15.89;75.86;99357.13;5056218;28;20055;-61
2023/06/30 01:24:59;;;;;;;0.60;0.60;;;;;;;15.91;75.76;99355.34;5057288;28;20051;-60
2023/06/30 01:27:31;;;;;;;0.55;0.55;;;;;;;15.92;75.90;99351.91;5057038;28;20057;-62
2023/06/30 01:30:00;;;;;;;0.82;0.82;;;;;;;15.89;75.72;99357.13;5057655;28;20445;-61
2023/06/30 01:32:30;;;;;;;0.50;0.50;;;;;;;15.87;75.88;99356.34;5055895;28;20052;-61
2023/06/30 01:34:59;;;;;;;2.75;1.48;;;;;;;15.80;76.00;99357.38;5056991;28;20491;-61
2023/06/30 01:37:28;;;;;;;0.97;0.77;;;;;;;15.77;75.93;99349.75;5056145;28;20041;-61
2023/06/30 01:39:59;;;;;;;4.38;1.02;;;;;;;15.75;76.11;99348.94;5055774;28;20140;-61
2023/06/30 01:42:28;;;;;;;0.55;0.55;;;;;;;15.78;76.04;99348.00;5056955;28;20127;-62
2023/06/30 01:44:59;;;;;;;0.57;0.57;;;;;;;15.80;76.17;99346.25;5057218;28;20045;-61
2023/06/30 01:47:29;;;;;;;0.77;0.75;;;;;;;15.79;76.01;99350.53;5057164;28;20127;-62
2023/06/30 01:49:59;;;;;;;1.23;0.90;;;;;;;15.78;75.99;99343.72;5056817;28;20057;-61
2023/06/30 01:52:29;;;;;;;0.52;0.45;;;;;;;15.75;76.12;99343.78;5056775;28;20069;-61
2023/06/30 01:55:00;;;;;;;0.70;0.70;;;;;;;15.67;76.19;99335.44;5056730;28;20057;-61
2023/06/30 01:57:29;;;;;;;0.50;0.50;;;;;;;15.65;76.27;99334.63;5055420;28;20143;-61
2023/06/30 01:59:58;;;;;;;0.65;0.65;;;;;;;15.51;76.16;99339.28;5055446;28;20545;-61
2023/06/30 02:02:27;;;;;;;0.50;0.50;;;;;;;15.51;76.10;99339.28;5055908;28;20045;-61
2023/06/30 02:04:56;;;;;;;1.25;0.70;;;;;;;15.55;76.03;99342.66;5055581;28;20284;-61
2023/06/30 02:07:25;;;;;;;0.95;0.65;;;;;;;15.50;75.98;99341.91;5056395;28;20045;-61
2023/06/30 02:09:54;;;;;;;1.50;0.80;;;;;;;15.49;76.00;99343.66;5056423;28;20095;-61
2023/06/30 02:12:25;;;;;;;0.98;0.70;;;;;;;15.47;76.11;99337.69;5055386;28;20438;-61
2023/06/30 02:14:54;;;;;;;0.77;0.73;;;;;;;15.52;76.64;99341.00;5055446;28;20487;-61
2023/06/30 02:17:31;;;;;;;3.33;0.90;;;;;;;15.52;76.03;99335.84;5055346;28;20041;-61
2023/06/30 02:20:03;;;;;;;0.80;0.80;;;;;;;15.45;76.30;99343.78;5055141;28;20053;-61
2023/06/30 02:22:32;;;;;;;0.77;0.77;;;;;;;15.39;76.17;99347.28;5056190;28;20076;-61
2023/06/30 02:25:01;;;;;;;2.07;1.20;;;;;;;15.30;76.33;99344.97;5054995;28;20040;-61
2023/06/30 02:27:32;;;;;;;0.68;0.63;;;;;;;15.26;76.38;99340.78;5056032;28;20123;-62
2023/06/30 02:30:05;;;;;;;0.88;0.85;;;;;;;15.32;76.48;99335.47;5056137;28;20056;-61
2023/06/30 02:32:38;;;;;;;1.00;0.85;;;;;;;15.35;76.52;99340.56;5056231;28;20049;-62
2023/06/30 02:35:09;;;;;;;0.77;0.70;;;;;;;15.33;76.50;99344.91;5056049;28;20057;-61
2023/06/30 02:37:38;;;;;;;3.50;1.75;;;;;;;15.36;76.25;99339.66;5054766;28;20455;-61
2023/06/30 02:40:09;;;;;;;0.50;0.50;;;;;;;15.36;76.50;99337.94;5055853;28;20056;-61
2023/06/30 02:42:39;;;;;;;1.05;0.60;;;;;;;15.39;76.90;99337.00;5055846;28;20065;-62
2023/06/30 02:45:09;;;;;;;0.60;0.60;;;;;;;15.35;76.61;99335.41;5054899;28;20377;-61
2023/06/30 02:47:38;;;;;;;;;;;;;;;15.30;76.83;99347.53;5056090;28;20045;-61
2023/06/30 02:50:09;;;;;;;0.57;0.57;;;;;;;15.10;76.96;99342.03;5056033;28;20345;-61
2023/06/30 02:52:44;;;;;;;1.17;0.95;;;;;;;14.96;77.16;99344.94;5055559;28;20479;-61
2023/06/30 02:55:13;;;;;;;0.45;0.45;;;;;;;14.89;78.04;99339.97;5054401;28;20107;-63
2023/06/30 02:57:43;;;;;;;1.07;1.00;;;;;;;14.95;77.99;99332.13;5054522;28;20053;-61
2023/06/30 03:00:14;;;;;;;1.10;0.93;;;;;;;15.07;78.17;99337.81;5055494;28;20049;-60
2023/06/30 03:02:44;;;;;;;0.70;0.70;;;;;;;14.99;78.07;99331.19;5055510;28;20455;-61
2023/06/30 03:05:15;;;;;;;0.80;0.80;;;;;;;14.96;78.24;99333.81;5055076;28;20157;-62
2023/06/30 03:07:44;;;;;;;1.25;0.80;;;;;;;15.02;78.47;99337.06;5037685;28;20087;-61
2023/06/30 03:10:13;;;;;;;1.07;1.00;;;;;;;15.05;78.34;99333.59;5054312;28;20052;-62
2023/06/30 03:12:44;;;;;;;1.00;0.80;;;;;;;15.13;78.57;99336.81;5053969;28;20053;-61
2023/06/30 03:15:13;;;;;;;1.20;1.10;;;;;;;15.17;78.18;99338.44;5054007;28;20049;-61
2023/06/30 03:17:42;;;;;;;0.90;0.85;;;;;;;15.19;78.13;99326.38;5053916;28;20045;-61
2023/06/30 03:20:12;;;;;;;2.03;0.88;;;;;;;15.21;78.14;99319.50;5053801;28;20091;-61
2023/06/30 03:22:42;;;;;;;0.38;0.38;;;;;;;15.25;77.77;99324.50;5053871;28;20045;-61
2023/06/30 03:25:11;;;;;;;0.82;0.57;;;;;;;15.22;77.61;99328.88;5053800;28;20041;-61
2023/06/30 03:27:40;;;;;;;0.63;0.63;;;;;;;15.28;78.19;99326.16;5055026;28;20052;-61
2023/06/30 03:30:12;;;;;;;1.27;0.68;;;;;;;15.28;77.88;99326.97;5053529;28;20441;-61
2023/06/30 03:32:45;;;;;;;1.23;1.13;;;;;;;15.38;78.04;99325.03;5055216;28;20041;-61
2023/06/30 03:35:14;;;;;;;0.50;0.50;;;;;;;15.41;77.40;99330.09;5055092;28;20090;-61
2023/06/30 03:37:43;;;;;;;0.60;0.60;;;;;;;15.32;77.75;99326.03;5054794;28;20132;-61
2023/06/30 03:40:13;;;;;;;1.80;1.07;;;;;;;15.30;78.10;99319.25;5053562;28;20045;-61
2023/06/30 03:42:42;;;;;;;1.52;1.38;;;;;;;15.32;78.34;99327.75;5053786;28;20494;-61
2023/06/30 03:45:13;;;;;;;0.70;0.70;;;;;;;15.43;78.10;99330.91;5053443;28;20057;-61
2023/06/30 03:47:42;;;;;;;1.60;1.27;;;;;;;15.46;78.31;99328.28;5053378;28;20048;-61
2023/06/30 03:50:11;;;;;;;2.00;1.25;;;;;;;15.54;78.25;99322.94;5054203;28;20041;-60
2023/06/30 03:52:40;;;;;;;1.40;1.05;;;;;;;15.57;78.47;99323.72;5053654;28;20438;-61
2023/06/30 03:55:09;;;;;;;0.65;0.65;;;;;;;15.60;78.24;99328.75;5054388;28;20041;-62
2023/06/30 03:57:38;;;;;;;2.15;1.48;;;;;;;15.70;78.39;99313.91;5054462;28;20127;-61
2023/06/30 04:00:11;;;;;;;1.48;0.98;;;;;;;15.84;78.23;99314.38;5054394;28;20443;-61
2023/06/30 04:02:42;;;;;;;1.33;1.20;;;;;;;15.92;77.64;99305.56;5054283;28;20037;-60
2023/06/30 04:05:10;;;;;;;0.55;0.55;;;;;;;15.98;77.59;99304.56;5054769;28;20041;-61
2023/06/30 04:07:39;;;;;;;0.63;0.63;;;;;;;16.08;77.42;99311.97;5054191;28;20095;-61
2023/06/30 04:10:09;;;;;;;0.65;0.65;;;;;;;16.19;77.37;99303.09;5054176;28;20041;-61
2023/06/30 04:12:38;;;;;;;;;;;;;;;16.27;77.04;99303.72;5054382;28;20037;-61
2023/06/30 04:15:08;;;;;;;0.85;0.85;;;;;;;16.33;76.75;99306.94;5054000;28;19921;-60
2023/06/30 04:17:36;;;;;;;13.10;0.70;;;;;;;16.37;76.94;99307.69;5054015;28;20094;-62
2023/06/30 04:20:09;;;;;;;1.20;1.10;;;;;;;16.41;76.84;99314.44;5054265;28;20438;-61
2023/06/30 04:22:39;;;;;;;1.42;1.33;;;;;;;16.48;76.71;99313.38;5053934;28;20068;-61
2023/06/30 04:25:09;;;;;;;1.08;1.00;;;;;;;16.56;76.68;99311.41;5053921;28;20052;-62
2023/06/30 04:27:37;;;;;;;1.50;1.38;;;;;;;16.67;76.53;99306.78;5053676;28;20053;-61
2023/06/30 04:30:07;;;;;;;0.60;0.60;;;;;;;16.78;76.63;99309.84;5053806;28;20075;-61
2023/06/30 04:32:36;;;;;;;1.25;1.02;;;;;;;16.76;76.52;99309.06;5053833;28;20063;-61
2023/06/30 04:35:08;;;;;;;1.15;1.05;;;;;;;16.87;76.42;99311.31;5053725;28;20051;-61
2023/06/30 04:37:40;;;;;;;2.53;1.55;;;;;;;16.93;76.14;99313.69;5054369;28;20065;-61
2023/06/30 04:40:10;;;;;;;0.65;0.60;;;;;;;17.02;76.20;99311.66;5053065;28;20044;-61
2023/06/30 04:42:38;;;;;;;1.02;0.90;;;;;;;17.13;75.95;99306.16;5052744;28;20140;-61
2023/06/30 04:45:08;;;;;;;0.93;0.80;;;;;;;17.25;75.67;99301.41;5053553;28;20056;-61
2023/06/30 04:47:37;;;;;;;1.88;0.95;;;;;;;17.43;75.43;99303.38;5053954;28;20278;-61
2023/06/30 04:50:08;;;;;;;1.13;0.80;;;;;;;17.49;75.28;99298.91;5053448;28;20063;-61
2023/06/30 04:52:37;;;;;;;1.02;0.90;;;;;;;17.64;75.33;99299.22;5053377;28;20045;-61
2023/06/30 04:55:06;;;;;;;1.20;1.00;;;;;;;17.69;74.91;99296.47;5053750;28;20114;-60
2023/06/30 04:57:35;;;;;;;1.33;0.90;;;;;;;17.74;74.67;99289.41;5053761;28;20124;-61
2023/06/30 05:00:06;;;;;;;1.33;1.02;;;;;;;17.78;74.15;99293.59;5053795;28;20412;-60
2023/06/30 05:02:36;;;;;;;2.22;1.30;;;;;;;17.87;74.05;99290.66;5053649;28;20045;-61
2023/06/30 05:05:05;;;;;;;1.25;1.13;;;;;;;17.96;73.87;99286.00;5053287;28;20049;-61
2023/06/30 05:07:35;;;;;;;0.60;0.60;;;;;;;17.99;73.56;99275.56;5053670;28;20076;-60
2023/06/30 05:10:05;;;;;;;1.38;1.27;;;;;;;18.06;73.42;99273.59;5053464;28;20040;-61
2023/06/30 05:12:34;;;;;;;1.52;1.25;;;;;;;18.19;73.09;99274.78;5053162;28;20049;-60
2023/06/30 05:15:03;;;;;;;0.70;0.70;;;;;;;18.38;72.72;99280.94;5053259;28;20047;-61
2023/06/30 05:17:32;;;;;;;1.48;1.38;;;;;;;18.54;72.26;99279.50;5054102;28;20415;-61
2023/06/30 05:20:05;;;;;;;0.85;0.82;;;;;;;18.69;71.88;99283.22;5053208;28;20562;-61
2023/06/30 05:22:35;;;;;;;1.50;0.98;;;;;;;18.70;71.70;99280.56;5053503;28;20415;-61
2023/06/30 05:25:05;;;;;;;1.55;0.88;;;;;;;18.78;71.72;99274.25;5053176;28;20053;-61
2023/06/30 05:27:33;;;;;;;0.75;0.75;;;;;;;18.92;71.39;99264.16;5053056;28;20518;-60
2023/06/30 05:30:02;;;;;;;0.50;0.50;;;;;;;19.03;71.23;99267.13;5053065;28;20124;-61
2023/06/30 05:32:31;;;;;;;2.42;1.38;;;;;;;19.14;71.08;99265.81;5053297;28;20137;-61
2023/06/30 05:35:00;;;;;;;0.95;0.93;;;;;;;19.34;70.99;99277.88;5053184;28;20065;-62
2023/06/30 05:37:29;;;;;;;1.73;1.42;;;;;;;19.45;70.47;99267.97;5053002;28;20042;-60
2023/06/30 05:39:59;;;;;;;1.38;1.27;;;;;;;19.61;70.31;99271.56;5053161;28;20052;-62
2023/06/30 05:42:29;;;;;;;0.98;0.88;;;;;;;19.74;69.88;99272.72;5052440;28;20526;-61
2023/06/30 05:44:57;;;;;;;23.73;3.27;;;;;;;19.81;69.41;99271.53;5052996;28;20045;-61
2023/06/30 05:47:26;;;;;;;1.17;1.07;;;;;;;19.92;69.13;99278.81;5053237;28;20336;-61
2023/06/30 05:49:55;;;;;;;0.68;0.68;;;;;;;20.12;68.97;99270.13;5052924;28;20274;-61
2023/06/30 05:52:25;;;;;;;1.48;1.30;;;;;;;20.15;68.22;99281.22;5053054;28;20491;-61
2023/06/30 05:54:54;;;;;;;0.90;0.82;;;;;;;20.27;67.97;99282.41;5055549;28;20437;-61
2023/06/30 05:57:24;;;;;;;1.88;1.00;;;;;;;20.43;67.50;99278.19;5056570;28;20049;-61
2023/06/30 05:59:53;;;;;;;0.57;0.57;;;;;;;20.53;67.26;99271.66;5056588;28;20076;-61
2023/06/30 06:02:22;;;;;;;1.77;1.37;;;;;;;20.66;67.00;99276.19;5056541;28;20040;-61
2023/06/30 06:04:51;;;;;;;1.17;0.98;;;;;;;20.78;66.86;99279.94;5056129;28;20290;-62
2023/06/30 06:07:20;;;;;;;;;;;;;;;20.83;66.43;99277.13;5057190;28;20050;-62
2023/06/30 06:09:49;;;;;;;1.85;1.75;;;;;;;20.92;66.19;99282.72;5056360;28;19921;-61
2023/06/30 06:12:18;;;;;;;0.60;0.60;;;;;;;21.06;65.65;99280.31;5056530;28;20051;-61
2023/06/30 06:14:49;;;;;;;0.65;0.65;;;;;;;21.17;65.70;99280.59;5056454;28;20091;-62
2023/06/30 06:17:17;;;;;;;1.42;1.33;;;;;;;21.25;66.32;99281.06;5056645;28;20099;-63
2023/06/30 06:19:46;;;;;;;0.83;0.80;;;;;;;21.31;65.84;99285.09;5056247;28;20041;-61
2023/06/30 06:22:15;;;;;;;0.73;0.70;;;;;;;21.45;65.84;99280.03;5056174;28;20040;-61
2023/06/30 06:24:44;;;;;;;1.55;1.02;;;;;;;21.53;64.94;99274.44;5056129;28;20041;-61
2023/06/30 06:27:13;;;;;;;5.57;3.10;;;;;;;21.62;64.21;99280.00;5047457;28;20045;-61
2023/06/30 06:29:42;;;;;;;0.60;0.60;;;;;;;21.68;63.88;99278.84;5045953;28;20114;-61
2023/06/30 06:32:12;;;;;;;1.23;0.77;;;;;;;21.76;63.81;99276.69;5056038;28;20049;-61
2023/06/30 06:34:41;;;;;;;1.17;1.02;;;;;;;21.90;63.48;99279.44;5055868;28;20080;-60
2023/06/30 06:37:10;;;;;;;0.80;0.80;;;;;;;22.07;62.93;99276.78;5055957;28;20492;-62
2023/06/30 06:39:39;;;;;;;0.60;0.60;;;;;;;22.16;62.45;99270.22;5036796;28;20099;-62
2023/06/30 06:42:08;;;;;;;1.30;1.20;;;;;;;22.29;62.20;99266.06;5032059;28;20060;-62
2023/06/30 06:44:37;;;;;;;0.93;0.80;;;;;;;22.36;62.05;99263.00;5055643;28;20045;-61
2023/06/30 06:47:39;;;;;;;1.27;0.88;;;;;;;22.44;61.87;99270.38;5055728;28;20053;-62
2023/06/30 06:50:10;;;;;;;0.50;0.50;;;;;;;22.54;61.81;99274.16;5002753;28;20045;-62
2023/06/30 06:52:39;;;;;;;0.77;0.77;;;;;;;22.66;61.87;99265.69;5034855;28;20046;-61
2023/06/30 06:55:08;;;;;;;10.65;3.22;;;;;;;22.83;61.07;99273.41;5041503;28;20048;-60
2023/06/30 06:57:37;;;;;;;1.25;1.15;;;;;;;22.94;60.27;99271.00;5037833;28;20045;-64
2023/06/30 07:00:07;;;;;;;0.50;0.50;;;;;;;23.07;60.23;99271.13;5052681;28;20047;-62
2023/06/30 07:02:36;;;;;;;0.93;0.88;;;;;;;23.09;59.70;99274.50;5055419;28;20483;-61
2023/06/30 07:05:05;;;;;;;3.78;1.35;;;;;;;23.11;59.86;99272.63;5045539;28;20037;-61
2023/06/30 07:07:36;;;;;;;0.60;0.45;;;;;;;23.24;59.74;99271.00;5035709;28;20049;-61
2023/06/30 07:10:06;;;;;;;0.68;0.52;;;;;;;23.28;59.56;99270.72;5034748;28;20065;-60
2023/06/30 07:12:35;;;;;;;0.73;0.73;;;;;;;23.42;59.19;99264.72;5035352;28;20446;-61
2023/06/30 07:15:06;;;;;;;0.93;0.85;;;;;;;23.36;58.64;99259.88;5035656;28;20436;-61
2023/06/30 07:17:35;;;;;;;1.13;1.02;;;;;;;23.33;58.43;99263.47;5035217;28;20492;-61
2023/06/30 07:20:04;;;;;;;0.63;0.63;;;;;;;23.26;58.38;99258.72;5052861;28;20045;-61
2023/06/30 07:22:34;;;;;;;1.58;1.08;;;;;;;23.37;58.16;99258.94;5055004;28;20033;-62
2023/06/30 07:25:06;;;;;;;1.15;0.93;;;;;;;23.49;58.25;99262.59;5053902;28;20045;-61
2023/06/30 07:27:38;;;;;;;0.95;0.80;;;;;;;23.74;58.13;99258.41;5054674;28;20068;-61
2023/06/30 07:30:07;;;;;;;1.00;0.95;;;;;;;23.82;58.30;99256.19;5052832;28;20099;-61
2023/06/30 07:32:36;;;;;;;0.90;0.90;;;;;;;23.77;57.83;99258.22;5055128;28;20053;-61
2023/06/30 07:35:06;;;;;;;0.50;0.50;;;;;;;23.90;58.03;99256.53;5054809;28;20033;-61
2023/06/30 07:37:34;;;;;;;0.88;0.88;;;;;;;23.97;57.23;99252.59;5054606;28;20049;-61
2023/06/30 07:40:08;;;;;;;1.45;0.85;;;;;;;24.22;57.41;99258.94;5036127;28;20046;-65
2023/06/30 07:42:57;;;;;;;0.82;0.80;;;;;;;24.27;56.50;99252.50;5034686;28;20049;-66
2023/06/30 07:45:25;;;;;;;0.70;0.70;;;;;;;24.28;56.80;99253.34;5035085;28;20372;-66
2023/06/30 07:47:55;;;;;;;0.93;0.93;;;;;;;24.31;56.42;99256.56;5034072;28;20111;-65
2023/06/30 07:50:24;;;;;;;3.05;1.38;;;;;;;24.32;55.75;99249.59;5034197;28;20120;-64
2023/06/30 07:52:53;;;;;;;0.57;0.50;;;;;;;24.44;55.55;99241.81;5034764;28;20045;-64
2023/06/30 07:55:24;;;;;;;1.08;0.63;;;;;;;24.56;56.05;99238.44;5034567;28;20046;-72
2023/06/30 07:57:53;;;;;;;0.60;0.57;;;;;;;24.60;56.16;99244.28;5044830;28;20044;-70
2023/06/30 08:00:28;;;;;;;0.50;0.50;;;;;;;24.65;55.64;99231.75;5051776;28;20203;-71
2023/06/30 08:02:57;;;;;;;0.60;0.60;;;;;;;24.68;54.64;99226.34;5054222;28;20048;-70
2023/06/30 08:05:26;;;;;;;0.50;0.50;;;;;;;24.73;53.43;99234.72;5052081;28;20177;-71
2023/06/30 08:07:56;;;;;;;0.60;0.50;;;;;;;24.94;52.43;99233.31;5033452;28;20210;-69
2023/06/30 08:10:26;;;;;;;1.17;0.70;;;;;;;25.10;52.78;99233.97;5035499;28;20040;-70
2023/06/30 08:12:55;;;;;;;0.75;0.75;;;;;;;25.30;53.74;99232.63;5054134;28;20041;-70
2023/06/30 08:15:24;;;;;;;0.68;0.60;;;;;;;25.38;53.83;99232.94;5054582;28;20475;-68
2023/06/30 08:17:53;;;;;;;0.85;0.77;;;;;;;25.53;53.71;99231.09;5053900;28;20041;-70
2023/06/30 08:20:26;;;;;;;0.88;0.80;;;;;;;25.62;53.57;99235.69;5050400;28;20523;-69
2023/06/30 08:22:55;;;;;;;3.10;1.45;;;;;;;25.80;54.36;99234.38;5033158;28;20077;-72
2023/06/30 08:25:27;;;;;;;0.80;0.60;;;;;;;25.75;53.77;99231.25;5053488;28;20037;-69
2023/06/30 08:27:56;;;;;;;1.15;1.05;;;;;;;25.76;54.04;99236.41;5053706;28;20076;-70
2023/06/30 08:30:24;;;;;;;0.80;0.80;;;;;;;25.79;54.79;99227.50;5053731;28;20051;-74
2023/06/30 08:32:54;;;;;;;0.85;0.75;;;;;;;25.79;55.22;99232.75;5053714;28;20036;-70
2023/06/30 08:35:25;;;;;;;0.60;0.60;;;;;;;25.82;54.47;99232.50;5052620;28;20045;-70
2023/06/30 08:37:54;;;;;;;0.85;0.82;;;;;;;25.82;53.76;99225.50;5053780;28;20039;-69
2023/06/30 08:40:29;;;;;;;1.23;1.00;;;;;;;25.91;52.80;99229.25;5053651;28;20040;-68
2023/06/30 08:43:00;;;;;;;0.55;0.55;;;;;;;25.91;51.85;99237.09;5053616;28;20115;-69
2023/06/30 08:45:31;;;;;;;0.63;0.63;;;;;;;26.00;51.73;99225.16;5048249;28;20525;-69
2023/06/30 08:48:05;;;;;;;1.08;0.65;;;;;;;26.10;51.14;99234.00;5033911;28;20046;-71
2023/06/30 08:50:34;;;;;;;1.08;0.88;;;;;;;26.05;49.47;99223.88;5033587;28;20049;-68
2023/06/30 08:53:04;;;;;;;;;;;;;;;26.09;48.61;99220.09;5033940;28;20045;-68
2023/06/30 08:55:34;;;;;;;0.35;0.35;;;;;;;26.04;48.03;99222.19;5032417;28;20382;-69
2023/06/30 08:58:03;;;;;;;0.52;0.52;;;;;;;26.14;49.00;99223.25;5033695;28;20049;-70
2023/06/30 09:00:45;;;;;;;0.80;0.80;;;;;;;26.15;48.76;99219.69;5032583;28;20128;-69
2023/06/30 09:03:14;;;;;;;;;;;;;;;26.15;48.40;99213.63;5034414;28;20041;-68
2023/06/30 09:05:46;;;;;;;0.60;0.60;;;;;;;26.41;48.96;99205.56;5033548;28;19921;-68
2023/06/30 09:08:21;;;;;;;0.63;0.63;;;;;;;26.49;47.86;99208.44;5032959;28;20042;-76
2023/06/30 09:10:53;;;;;;;0.60;0.60;;;;;;;26.56;47.28;99204.41;5032955;28;20057;-64
2023/06/30 09:13:25;;;;;;;0.50;0.50;;;;;;;26.72;46.85;99203.28;5033511;28;20495;-68
2023/06/30 09:15:58;;;;;;;0.70;0.50;;;;;;;26.79;46.87;99201.91;5033277;28;20052;-67
2023/06/30 09:18:28;;;;;;;0.80;0.80;;;;;;;26.77;47.37;99203.81;5033539;28;20136;-65
2023/06/30 09:20:57;;;;;;;4.78;1.05;;;;;;;26.89;47.40;99200.28;5032077;28;20042;-68
2023/06/30 09:23:27;;;;;;;0.50;0.50;;;;;;;26.90;47.51;99204.59;5036465;28;20040;-68
2023/06/30 09:25:57;;;;;;;0.47;0.47;;;;;;;27.14;47.39;99184.34;5049672;28;20064;-67
2023/06/30 09:28:27;;;;;;;0.70;0.70;;;;;;;27.21;46.29;99196.06;5053742;28;20053;-67
2023/06/30 09:31:01;;;;;;;0.40;0.40;;;;;;;27.07;46.46;99188.41;5057081;28;20045;-66
2023/06/30 09:33:35;;;;;;;0.50;0.50;;;;;;;27.00;46.13;99184.56;5041426;28;20385;-69
2023/06/30 09:36:04;;;;;;;0.88;0.85;;;;;;;27.01;45.93;99183.63;5035181;28;20066;-65
2023/06/30 09:38:35;;;;;;;1.00;0.90;;;;;;;27.16;45.46;99178.06;5044326;28;20045;-67
2023/06/30 09:41:21;;;;;;;0.55;0.55;;;;;;;27.25;44.81;99176.53;5037241;28;20045;-71
2023/06/30 09:43:58;;;;;;;0.50;0.50;;;;;;;27.30;44.75;99174.38;5037398;28;20041;-67
2023/06/30 09:46:29;;;;;;;0.55;0.55;;;;;;;27.39;45.41;99176.31;5037523;28;20079;-67
2023/06/30 09:49:01;;;;;;;0.50;0.50;;;;;;;27.42;44.62;99181.34;5056949;28;20033;-66
2023/06/30 09:51:34;;;;;;;0.60;0.60;;;;;;;27.30;44.55;99179.63;5037167;28;20049;-66
2023/06/30 09:54:04;;;;;;;0.57;0.57;;;;;;;27.50;44.76;99176.31;5038273;28;20045;-66
2023/06/30 09:56:41;;;;;;;0.52;0.52;;;;;;;27.55;44.48;99168.91;5056885;28;20075;-68
2023/06/30 09:59:10;;;;;;;2.92;1.63;;;;;;;27.68;43.79;99180.13;5056984;28;20053;-67
2023/06/30 10:01:40;;;;;;;2.58;0.68;;;;;;;27.49;43.31;99174.66;5056579;28;20095;-67
2023/06/30 10:04:09;;;;;;;0.93;0.82;;;;;;;27.49;43.76;99173.81;5036816;28;20045;-67
2023/06/30 10:06:39;;;;;;;1.17;1.00;;;;;;;27.64;44.75;99162.94;5036789;28;20060;-69
2023/06/30 10:09:09;;;;;;;0.82;0.80;;;;;;;27.63;44.33;99169.16;5036540;28;20563;-66
2023/06/30 10:11:44;;;;;;;1.67;1.23;;;;;;;27.54;43.56;99167.28;5036598;28;20054;-67
2023/06/30 10:14:15;;;;;;;1.05;0.95;;;;;;;27.47;43.61;99162.63;5047413;28;20041;-67
2023/06/30 10:16:47;;;;;;;1.40;1.30;;;;;;;27.49;44.01;99158.09;5056344;28;20056;-65
2023/06/30 10:19:17;;;;;;;0.65;0.65;;;;;;;27.60;43.71;99166.78;5056690;28;20561;-63
2023/06/30 10:21:47;;;;;;;1.23;0.65;;;;;;;27.61;43.91;99162.38;5055508;28;20040;-68
2023/06/30 10:24:18;;;;;;;0.80;0.80;;;;;;;27.65;43.69;99156.75;5036234;28;20109;-66
2023/06/30 10:26:49;;;;;;;0.80;0.60;;;;;;;27.65;44.03;99143.63;5035945;28;20077;-68
2023/06/30 10:29:19;;;;;;;2.38;0.98;;;;;;;27.83;44.11;99151.84;5036251;28;20050;-67
2023/06/30 10:31:50;;;;;;;0.75;0.50;;;;;;;27.82;43.70;99151.00;5036371;28;20050;-67
2023/06/30 10:34:19;;;;;;;0.70;0.70;;;;;;;27.93;43.37;99158.84;5053158;28;20045;-64
2023/06/30 10:36:48;;;;;;;;;;;;;;;27.99;43.31;99157.53;5055190;28;20135;-67
2023/06/30 10:39:17;;;;;;;0.60;0.60;;;;;;;28.13;43.54;99152.03;5053427;28;19951;-68
2023/06/30 10:41:49;;;;;;;0.50;0.50;;;;;;;28.29;43.00;99157.69;5034879;28;20041;-67
2023/06/30 10:44:20;;;;;;;0.77;0.75;;;;;;;28.23;42.20;99149.50;5036155;28;20132;-66
2023/06/30 10:46:53;;;;;;;0.80;0.80;;;;;;;28.22;41.75;99163.59;5035944;28;20113;-65
2023/06/30 10:49:29;;;;;;;0.63;0.63;;;;;;;28.23;41.37;99145.06;5034946;28;20128;-65
2023/06/30 10:51:59;;;;;;;0.50;0.50;;;;;;;28.41;41.70;99142.75;5036057;28;20061;-65
2023/06/30 10:54:31;;;;;;;0.75;0.70;;;;;;;28.41;41.77;99143.56;5036015;28;20052;-66
2023/06/30 10:57:10;;;;;;;1.00;0.88;;;;;;;28.29;42.10;99143.75;5035858;28;20050;-67
2023/06/30 10:59:41;;;;;;;0.40;0.40;;;;;;;28.29;42.05;99138.50;5034932;28;20416;-67
2023/06/30 11:02:14;;;;;;;0.82;0.63;;;;;;;28.22;42.29;99132.09;5035593;28;20519;-68
2023/06/30 11:04:46;;;;;;;0.50;0.50;;;;;;;28.25;42.36;99126.56;5035568;28;20050;-66
2023/06/30 11:07:18;;;;;;;0.52;0.52;;;;;;;28.33;42.08;99139.91;5035759;28;20083;-65
2023/06/30 11:10:00;;;;;;;0.60;0.60;;;;;;;28.34;42.18;99136.31;5034366;28;20047;-69
2023/06/30 11:12:53;;;;;;;0.77;0.75;;;;;;;28.22;42.47;99126.84;5036289;28;20104;-66
2023/06/30 11:15:30;;;;;;;1.13;1.02;;;;;;;28.29;42.39;99128.00;5035581;28;20048;-66
2023/06/30 11:18:01;;;;;;;0.50;0.50;;;;;;;28.41;42.71;99121.75;5035292;28;20052;-67
2023/06/30 11:20:30;;;;;;;2.45;0.60;;;;;;;28.51;43.06;99122.63;5035182;28;20061;-68
2023/06/30 11:23:00;;;;;;;;;;;;;;;28.28;43.18;99114.03;5054720;28;20450;-65
2023/06/30 11:25:32;;;;;;;0.43;0.43;;;;;;;28.27;42.20;99119.38;5046205;28;19924;-65
2023/06/30 11:28:04;;;;;;;0.52;0.52;;;;;;;28.29;42.10;99117.50;5039001;28;20064;-71
2023/06/30 11:30:36;;;;;;;0.55;0.55;;;;;;;28.15;41.60;99104.66;5053194;28;20380;-68
2023/06/30 11:33:07;;;;;;;1.00;0.75;;;;;;;28.25;42.20;99108.19;5054876;28;20495;-67
2023/06/30 11:35:37;;;;;;;0.68;0.60;;;;;;;28.43;42.03;99098.81;5047165;28;20131;-67
2023/06/30 11:38:09;;;;;;;0.47;0.47;;;;;;;28.45;41.90;99089.00;5050921;28;20048;-67
2023/06/30 11:40:46;;;;;;;0.85;0.73;;;;;;;28.29;42.26;99091.25;5054704;28;20049;-65
2023/06/30 11:43:17;;;;;;;0.70;0.70;;;;;;;28.32;42.17;99085.72;5055061;28;20077;-65
2023/06/30 11:45:56;;;;;;;0.50;0.50;;;;;;;28.33;42.04;99080.34;5043127;28;20077;-68
2023/06/30 11:48:29;;;;;;;0.60;0.60;;;;;;;28.31;42.35;99084.06;5034695;28;20061;-66
2023/06/30 11:51:00;;;;;;;2.17;1.13;;;;;;;28.27;41.45;99082.63;5034680;28;20491;-69